Ana Sayfa
Uydu Görüntüleri 15 günlük hava durumuİklimDenizcilik Siklon Yıldırım Hava limanıSSS Newsletter Hakkında
Hava : Avrupa Afrika Kuzey Amerika Güney Amerika Asya Avustralya-Okyanusya Diğer
Diller Erişim

Istanbul Sabiha Gökçen, Türkiye

Enlem: 40-53-55N, Boylam: 029-18-33E, yükseklik: 95 m


METAR: LTFJ 220650Z 03007KT CAVOK 27/15 Q1010 NOSIG RMK RWY24 01005KT 340V070
short-TAF: out of date (33455 saat)
long-TAF: LTFJ 220440Z 2206/2306 04009KT CAVOK

Saat: 10:20 (07:20 UTC)

Current weather observation

Rapor 30 dakika önce saat 06:50 UTC de hazýrlanmýþ.
Rüzgâr 07 kt yönü kuzey/kuzeydoğu
Sıcaklık 27°C
Humidity 48%
Basınç 1010 hPa
Görüş 10 km veya daha fazla
1500m altýnda bulut bulunmuyor ve kumulonimbus bulutlarý yok

Birim sistemleri

Forecast

Rapor 2 saat ve 17 dakika önce saat 05:03 UTC de hazýrlanmýþ.
Forecast valid from 22 at 06 UTC to 23 at 06 UTC
Rüzgâr 09 kt yönü kuzeydoğu
Görüş 10 km veya daha fazla
1500m altýnda bulut bulunmuyor ve kumulonimbus bulutlarý yok
Allmetsat bilgi geçerliliğini garanti etmez sorumluluk reddi
Hava : Avrupa Afrika Kuzey Amerika Güney Amerika Asya Avustralya-Okyanusya Diğer
Uydu Görüntüleri 15 günlük hava durumuİklimDenizcilik Siklon Yıldırım Hava limanıSSS Diller Erişim Newsletter Hakkında